• Join FlightAware (Why Join?)
  • Login
  • US Flag 
01:43AM EDT


 

Airport Tracker/Info


-or-


 

Live Flight TrackerFlight Track Log ✈ N618JB ✈ 11-Apr-2013 ✈ KEWR - KMCO

Flight Track Log - Related Links

Times and Time Zones

All times are in EDT time to prevent confusion due to time zone crossing. See the N618JB flight status page for this flight to view local times or setup timezone preferences in your user account.

Time Position Orientation Groundspeed Altitude Reporting Facility
EDT Latitude Longitude Course Direction KTS MPH feet Rate Location/Type
12:22PM 40.7500 -74.1167 180° South 223 257 2,800  Level New York TRACON
12:22PM 40.7833 -74.1833 303° West 260 299 5,500 3,180 Climbing New York TRACON
12:23PM 40.7500 -74.2333 229° Southwest 240 276 8,900 3,060 Climbing New York TRACON
12:24PM 40.6833 -74.2333 180° South 267 307 11,700 1,920 Climbing New York TRACON
12:26PM 40.5833 -74.2167 173° South 337 388 13,000 1,620 Climbing New York TRACON
12:27PM 40.0368 -74.2333 180° South  Level FlightAware Approximate
12:27PM 40.4353 -74.1850 171° South 369 425 16,200  Level New York Center
12:28PM 40.3233 -74.1656 172° South 374 430 18,400 1,920 Climbing New York Center
12:30PM 40.1461 -74.3050 211° Southwest 346 398 22,000 1,680 Climbing Washington Center
12:31PM 40.0575 -74.3908 217° Southwest 373 429 23,400 960 Climbing Washington Center
12:32PM 39.9686 -74.4761 216° Southwest 394 453 24,000 300 Climbing Washington Center
12:33PM 39.8800 -74.5614 216° Southwest 406 467 24,000  Level Washington Center
12:34PM 39.8075 -74.6328 217° Southwest 406 467 24,000  Level Washington Center
12:35PM 39.7061 -74.7283 216° Southwest 406 467 24,100 720 Climbing Washington Center
12:36PM 39.6153 -74.8158 217° Southwest 406 467 25,500 1,200 Climbing Washington Center
12:37PM 39.5200 -74.9056 216° Southwest 417 480 26,600 1,200 Climbing Washington Center
12:38PM 39.4225 -74.9978 216° Southwest 432 497 27,900 1,200 Climbing Washington Center
12:39PM 39.3250 -75.0872 215° Southwest 432 497 29,000 1,020 Climbing Washington Center
12:40PM 39.2083 -75.1522 203° Southwest 444 511 30,000 480 Climbing Washington Center
12:41PM 39.0878 -75.2039 198° South 449 517 30,000  Level Washington Center
12:42PM 38.9628 -75.2553 198° South 461 531 30,000  Level Washington Center
12:43PM 38.8400 -75.3064 198° South 466 536 30,000 300 Level Washington Center
12:44PM 38.7169 -75.3575 198° South 466 536 30,600 1,020 Climbing Washington Center
12:45PM 38.5942 -75.4083 198° South 466 536 32,100 1,500 Climbing Washington Center
12:46PM 38.4753 -75.4617 199° South 461 531 33,600 900 Climbing Washington Center
12:47PM 38.3567 -75.5122 198° South 461 531 34,000 180 Climbing Washington Center
12:48PM 38.2397 -75.5758 203° Southwest 461 531 34,000  Level Washington Center
12:49PM 38.1253 -75.6444 205° Southwest 461 531 34,000  Level Washington Center
12:50PM 38.0189 -75.7208 210° Southwest 455 524 34,000  Level Washington Center
12:51PM 37.9039 -75.7917 206° Southwest 455 524 34,000  Level Washington Center
12:52PM 37.7869 -75.8572 204° Southwest 455 524 34,000  Level Washington Center
12:53PM 37.6783 -75.9303 208° Southwest 455 524 34,000  Level Washington Center
12:54PM 37.5656 -76.0006 206° Southwest 455 524 34,000  Level Washington Center
12:55PM 37.4528 -76.0706 206° Southwest 455 524 34,000  Level Washington Center
12:56PM 37.3397 -76.1378 205° Southwest 455 524 34,000  Level Washington Center
12:57PM 37.2228 -76.1994 203° Southwest 450 518 34,000  Level Washington Center
12:58PM 37.1117 -76.2717 207° Southwest 450 518 34,000  Level Washington Center
12:59PM 37.0008 -76.3383 206° Southwest 445 512 34,000  Level Washington Center
01:00PM 36.8917 -76.4125 209° Southwest 445 512 34,000  Level Washington Center
01:01PM 36.8367 -76.5469 243° Southwest 422 486 34,100  Climbing Washington Center
01:02PM 36.8125 -76.6894 258° West 411 473 34,100 -480 Level Washington Center
01:03PM 36.7819 -76.8314 255° West 422 486 33,200 -1,080 Descending Washington Center
01:04PM 36.6889 -76.9258 219° Southwest 422 486 32,000 -600 Descending Washington Center
01:05PM 36.5675 -76.9756 198° South 412 474 32,000  Level Washington Center
01:06PM 36.4522 -77.0250 199° South 429 494 32,000 -60 Level Washington Center
01:07PM 36.3325 -77.0772 199° South 449 517 31,900 -60 Descending Washington Center
01:08PM 36.2131 -77.1239 197° South 449 517 31,900  Level Washington Center
01:09PM 36.0997 -77.1731 199° South 442 509 32,000  Climbing Washington Center
01:10PM 35.9803 -77.2219 198° South 447 514 32,000  Level Washington Center
01:11PM 35.8583 -77.2708 198° South 452 520 32,000  Level Washington Center
01:12PM 35.7389 -77.3194 198° South 457 526 32,100  Climbing Washington Center
01:13PM 35.6169 -77.3703 199° South 462 532 32,000 -60 Descending Washington Center
01:14PM 35.4975 -77.4186 198° South 468 539 32,000  Level Washington Center
01:15PM 35.3756 -77.4644 197° South 468 539 32,000  Level Washington Center
01:16PM 35.2539 -77.5150 199° South 468 539 32,000  Level Washington Center
01:17PM 35.1300 -77.5653 198° South 468 539 32,000  Level Washington Center
01:18PM 35.0103 -77.6106 197° South 468 539 32,000  Level Washington Center
01:19PM 34.8883 -77.6608 199° South 468 539 32,000  Level Washington Center
01:20PM 34.7686 -77.7133 200° South 468 539 32,000  Level Washington Center
01:21PM 34.6444 -77.7606 197° South 468 539 32,000  Level Washington Center
01:22PM 34.5247 -77.8078 198° South 468 539 32,000  Level Washington Center
01:23PM 34.4008 -77.8572 198° South 468 539 32,000  Level Washington Center
01:24PM 34.2747 -77.8967 194° South 468 539 32,000  Level Washington Center
01:27PM 33.9644 -77.9925 194° South 475 547 32,000  Level Jacksonville Center
01:28PM 33.8403 -78.0194 190° South 470 541 32,000  Level Jacksonville Center
01:29PM 33.7167 -78.0589 195° South 470 541 32,000  Level Jacksonville Center
01:30PM 33.5764 -78.0989 193° South 470 541 32,000  Level Jacksonville Center
01:31PM 33.4506 -78.1356 194° South 470 541 32,000  Level Jacksonville Center
01:32PM 33.3264 -78.1672 192° South 465 535 32,000  Level Jacksonville Center
01:33PM 33.2006 -78.2061 194° South 465 535 32,000  Level Jacksonville Center
01:34PM 33.0744 -78.2400 193° South 465 535 32,000  Level Jacksonville Center
01:35PM 32.9506 -78.2736 193° South 465 535 32,000  Level Jacksonville Center
01:36PM 32.8244 -78.3072 193° South 465 535 32,000  Level Jacksonville Center
01:37PM 32.7008 -78.3481 196° South 465 535 32,000  Level Jacksonville Center
01:38PM 32.5744 -78.3792 192° South 465 535 32,000  Level Jacksonville Center
01:39PM 32.4506 -78.4147 194° South 465 535 32,000  Level Jacksonville Center
01:40PM 32.3431 -78.4469 194° South 460 529 32,000  Level Jacksonville Center
01:41PM 32.2153 -78.4875 195° South 465 535 32,000  Level Jacksonville Center
01:42PM 32.0931 -78.5206 193° South 470 541 32,000  Level Jacksonville Center
01:44PM 31.8777 -78.5782 193° South  Level FlightAware Approximate
01:45PM 31.7233 -78.6308 193° South 464 534 32,000  Level Jacksonville Center
01:46PM 31.6011 -78.6631 193° South 464 534 32,000  Level Jacksonville Center
01:47PM 31.4772 -78.7006 194° South 464 534 32,000  Level Jacksonville Center
01:48PM 31.3553 -78.7375 195° South 459 528 32,000  Level Jacksonville Center
01:49PM 31.2353 -78.7697 193° South 459 528 32,000  Level Jacksonville Center
01:50PM 31.1111 -78.8067 194° South 459 528 32,000  Level Jacksonville Center
01:51PM 30.9744 -78.8417 192° South 452 520 32,000  Level Jacksonville Center
01:52PM 30.8567 -78.8756 194° South 456 525 32,000  Level Jacksonville Center
01:53PM 30.7344 -78.9097 194° South 454 522 32,000  Level Jacksonville Center
01:54PM 30.6103 -78.9464 194° South 452 520 32,000  Level Jacksonville Center
01:54PM 30.5650 -78.9581 193° South 450 518 32,000  Level Miami Center
01:55PM 30.4436 -78.9917 193° South 445 512 32,000  Level Miami Center
01:56PM 30.3200 -79.0422 199° South 458 527 32,000  Level Miami Center
01:57PM 30.2003 -79.0903 199° South 458 527 32,000 -720 Level Miami Center
01:58PM 30.0828 -79.1428 201° Southwest 458 527 30,600 -1,080 Descending Miami Center
01:59PM 29.9586 -79.2119 206° Southwest 458 527 29,900 -1,020 Descending Miami Center
02:00PM 29.8389 -79.2619 200° South 458 527 28,600 -960 Descending Miami Center
02:01PM 29.7194 -79.3072 198° South 458 527 28,000 -300 Descending Miami Center
02:02PM 29.6058 -79.3594 202° Southwest 453 521 28,000  Level Miami Center
02:03PM 29.4903 -79.4117 201° Southwest 453 521 28,000  Level Miami Center
02:04PM 29.3847 -79.4733 207° Southwest 426 490 28,000  Level Miami Center
02:05PM 29.2631 -79.5158 197° South 450 518 28,000 -600 Level Miami Center
02:06PM 29.1594 -79.5869 211° Southwest 434 499 26,900 -1,380 Descending Miami Center
02:07PM 29.0867 -79.6800 228° Southwest 422 486 25,300 -1,680 Descending Miami Center
02:08PM 29.0367 -79.7881 242° Southwest 390 449 23,600 -1,740 Descending Miami Center
02:09PM 28.9989 -79.8961 248° West 385 443 21,900 -1,740 Descending Miami Center
02:10PM 28.9631 -80.0067 250° West 378 435 20,200 -1,800 Descending Miami Center
02:11PM 28.9272 -80.1169 250° West 378 435 18,400 -1,680 Descending Miami Center
02:12PM 28.8956 -80.2228 251° West 366 421 16,900 -1,380 Descending Miami Center
02:14PM 28.8333 -80.4500 253° West 327 376 14,000 -1,080 Descending Orlando TRACON
02:15PM 28.8167 -80.5500 259° West 329 379 13,400 -1,200 Descending Orlando TRACON
02:16PM 28.8000 -80.6500 259° West 314 361 11,700 -1,740 Descending Orlando TRACON
02:17PM 28.7833 -80.7500 259° West 317 365 10,000 -900 Descending Orlando TRACON
02:18PM 28.7667 -80.8500 259° West 283 326 10,000  Level Orlando TRACON
02:19PM 28.7667 -80.9333 270° West 276 318 10,000 -1,140 Level Orlando TRACON
02:20PM 28.7500 -81.0167 257° West 277 319 7,800 -2,040 Descending Orlando TRACON
02:21PM 28.7333 -81.1000 257° West 269 310 6,000 -900 Descending Orlando TRACON
02:22PM 28.7333 -81.1667 270° West 219 252 6,000 -120 Level Orlando TRACON
02:23PM 28.7500 -81.2333 286° West 199 229 5,800 -900 Descending Orlando TRACON
02:24PM 28.7167 -81.2833 233° Southwest 178 205 4,300 -900 Descending Orlando TRACON
02:25PM 28.6667 -81.3000 196° South 184 212 4,000 -360 Descending Orlando TRACON
02:26PM 28.6167 -81.3000 180° South 186 214 3,600 -780 Descending Orlando TRACON
02:27PM 28.5667 -81.3000 180° South 190 219 2,500 -1,020 Descending Orlando TRACON
02:28PM 28.5167 -81.3000 180° South 179 206 1,600 -900 Descending Orlando TRACON
02:29PM 28.4667 -81.3000 180° South 149 171 800 -840 Descending Orlando TRACON